Main page
METAR-TAF:

METAR-TAF

Airports :

Bodø Airport

Bodø, Norway

latitude: 67-16N, longitude: 014-22E, elevation: 1 m

Current weather observation

The report was made 1 hour and 12 minutes ago, at 03:20 UTC
Wind 7 kt from the East/Southeast
Temperature 9°C
Humidity 93%
Pressure 1011 hPa
Visibility 10 km or more

METAR: ENBO 250320Z AUTO 11007KT 9999 OVC046/// 09/08 Q1011

Time: 06:32 (04:32 UTC)

Forecast

Forecast valid from 25 at 00 UTC to 25 at 24 UTC
Wind 8 kt from the Southeast
Visibility 10 km or more
Scattered clouds at a height of 2000 ft
Broken clouds at a height of 5000 ft
Temporary
from 25 at 16 UTC to 25 at 24 UTC
Wind 18 kt from the South/Southeast

TAF: ENBO 2500/2524 13008KT 9999 SCT020 BKN050 TEMPO 2516/2524 15018KT

Weather observations and forecasts of more than 4000 airports (METAR and TAF reports).

The available stations are represented by yellow and red dots on the map.

Hover mouse over dot to see the name of the station.

Then click to see weather observations and forecasts.

To change the map : click on the green buttons with a black cross to zoom in, on the green button with a dash to zoom out, or on the green arrows for adjacent maps.


METAR-TAF: